createdAt,value
2019-04-07T00:00:57.784Z,0.00
2019-04-07T00:01:58.294Z,0.00
2019-04-07T00:02:57.719Z,0.00
2019-04-07T00:03:57.710Z,0.00
2019-04-07T00:05:09.325Z,0.00
2019-04-07T00:05:57.717Z,0.00
2019-04-07T00:06:57.779Z,0.00
2019-04-07T00:07:57.711Z,0.00
2019-04-07T00:08:57.713Z,0.00
2019-04-07T00:09:57.711Z,0.00
2019-04-07T00:10:57.882Z,0.00
2019-04-07T00:11:57.716Z,0.00
2019-04-07T00:12:57.783Z,0.00
2019-04-07T00:13:57.952Z,0.00
2019-04-07T00:14:57.719Z,0.00
2019-04-07T00:15:57.846Z,0.00
2019-04-07T00:16:57.749Z,0.00
2019-04-07T00:17:57.819Z,0.00
2019-04-07T00:18:57.817Z,0.00
2019-04-07T00:19:57.822Z,0.00
2019-04-07T00:20:58.482Z,0.00
2019-04-07T00:21:57.730Z,0.00
2019-04-07T00:22:58.231Z,0.00
2019-04-07T00:23:57.966Z,0.00
2019-04-07T00:24:58.304Z,0.00
2019-04-07T00:25:57.804Z,0.00
2019-04-07T00:26:57.847Z,0.00
2019-04-07T00:27:57.697Z,0.00
2019-04-07T00:28:57.840Z,0.00
2019-04-07T00:29:57.932Z,0.00
2019-04-07T00:30:57.740Z,0.00
2019-04-07T00:31:57.845Z,0.00
2019-04-07T00:32:58.380Z,0.00
2019-04-07T00:33:58.212Z,0.00
2019-04-07T00:34:57.788Z,0.00
2019-04-07T00:35:58.175Z,0.00
2019-04-07T00:36:57.824Z,0.00
2019-04-07T00:37:58.306Z,0.00
2019-04-07T00:38:57.799Z,0.00
2019-04-07T00:39:57.817Z,0.00
2019-04-07T00:40:57.801Z,0.00
2019-04-07T00:41:58.280Z,0.00
2019-04-07T00:42:58.324Z,0.00
2019-04-07T00:43:58.172Z,0.00
2019-04-07T00:44:57.810Z,0.00
2019-04-07T00:45:58.009Z,0.00
2019-04-07T00:46:57.741Z,0.00
2019-04-07T00:47:57.748Z,0.00
2019-04-07T00:48:57.868Z,0.00
2019-04-07T00:49:57.855Z,0.00
2019-04-07T00:50:57.829Z,0.00
2019-04-07T00:51:58.406Z,0.00
2019-04-07T00:52:57.770Z,0.00
2019-04-07T00:53:57.772Z,0.00
2019-04-07T00:54:57.778Z,0.00
2019-04-07T00:55:57.796Z,0.00
2019-04-07T00:56:57.834Z,0.00
2019-04-07T00:57:58.371Z,0.00
2019-04-07T00:58:57.843Z,0.00
2019-04-07T00:59:57.789Z,0.00
2019-04-07T01:00:57.846Z,0.00
2019-04-07T01:01:58.057Z,0.00
2019-04-07T01:02:58.271Z,0.00
2019-04-07T01:03:58.398Z,0.00
2019-04-07T01:04:58.361Z,0.00
2019-04-07T01:05:57.795Z,0.00
2019-04-07T01:06:57.824Z,0.00
2019-04-07T01:07:58.403Z,0.00
2019-04-07T01:08:57.921Z,0.00
2019-04-07T01:09:57.752Z,0.00
2019-04-07T01:10:58.015Z,0.00
2019-04-07T01:11:57.760Z,0.00
2019-04-07T01:12:57.838Z,0.00
2019-04-07T01:13:58.163Z,0.00
2019-04-07T01:14:57.830Z,0.00
2019-04-07T01:15:58.055Z,0.00
2019-04-07T01:16:58.298Z,0.00
2019-04-07T01:17:57.842Z,0.00
2019-04-07T01:18:57.999Z,0.00
2019-04-07T01:19:57.859Z,0.00
2019-04-07T01:20:58.312Z,0.00
2019-04-07T01:21:57.859Z,0.00
2019-04-07T01:23:57.873Z,0.00
2019-04-07T01:24:58.503Z,0.00
2019-04-07T01:25:58.485Z,0.00
2019-04-07T01:26:57.781Z,0.00
2019-04-07T01:27:57.824Z,0.00
2019-04-07T01:28:58.151Z,0.00
2019-04-07T01:29:58.010Z,0.00
2019-04-07T01:30:57.946Z,0.00
2019-04-07T01:31:58.427Z,0.00
2019-04-07T01:32:57.763Z,0.00
2019-04-07T01:33:58.667Z,0.00
2019-04-07T01:34:58.119Z,0.00
2019-04-07T01:35:57.750Z,0.00
2019-04-07T01:36:58.362Z,0.00
2019-04-07T01:37:58.318Z,0.00
2019-04-07T01:38:57.846Z,0.00
2019-04-07T01:39:58.063Z,0.00
2019-04-07T01:40:57.812Z,0.00
2019-04-07T01:41:58.399Z,0.00
2019-04-07T01:42:57.850Z,0.00
2019-04-07T01:43:57.768Z,0.00
2019-04-07T01:44:58.419Z,0.00
2019-04-07T01:45:57.754Z,0.00
2019-04-07T01:46:58.146Z,0.00
2019-04-07T01:47:58.416Z,0.00
2019-04-07T01:48:57.765Z,0.00
2019-04-07T01:49:57.848Z,0.00
2019-04-07T01:50:58.153Z,0.00
2019-04-07T01:51:57.790Z,0.00
2019-04-07T01:52:57.994Z,0.00
2019-04-07T01:53:57.757Z,0.00
2019-04-07T01:54:57.739Z,0.00
2019-04-07T01:55:57.823Z,0.00
2019-04-07T01:56:58.098Z,0.00
2019-04-07T01:57:57.794Z,0.00
2019-04-07T01:58:58.296Z,0.00
2019-04-07T01:59:58.195Z,0.00
2019-04-07T02:00:57.793Z,0.00
2019-04-07T02:01:58.105Z,0.00
2019-04-07T02:02:57.796Z,0.00
2019-04-07T02:03:58.432Z,0.00
2019-04-07T02:04:58.024Z,0.00
2019-04-07T02:06:01.739Z,0.00
2019-04-07T02:06:57.975Z,0.00
2019-04-07T02:07:57.817Z,0.00
2019-04-07T02:08:58.331Z,0.00
2019-04-07T02:09:57.815Z,0.00
2019-04-07T02:10:58.261Z,0.00
2019-04-07T02:11:58.345Z,0.00
2019-04-07T02:12:57.958Z,0.00
2019-04-07T02:13:58.380Z,0.00
2019-04-07T02:14:57.908Z,0.00
2019-04-07T02:15:57.915Z,0.00
2019-04-07T02:16:57.905Z,0.00
2019-04-07T02:17:58.207Z,0.00
2019-04-07T02:18:57.853Z,0.00
2019-04-07T02:19:57.845Z,0.00
2019-04-07T02:20:57.842Z,0.00
2019-04-07T02:21:58.282Z,0.00
2019-04-07T02:22:57.875Z,0.00
2019-04-07T02:23:57.842Z,0.00
2019-04-07T02:24:57.841Z,0.00
2019-04-07T02:25:58.187Z,0.00
2019-04-07T02:26:57.809Z,0.00
2019-04-07T02:27:57.887Z,0.00
2019-04-07T02:28:58.413Z,0.00
2019-04-07T02:29:57.946Z,0.00
2019-04-07T02:30:58.891Z,0.00
2019-04-07T02:31:58.482Z,0.00
2019-04-07T02:32:58.307Z,0.00
2019-04-07T02:33:57.825Z,0.00
2019-04-07T02:34:57.886Z,0.00
2019-04-07T02:36:13.284Z,0.00
2019-04-07T02:36:58.259Z,0.00
2019-04-07T02:37:58.018Z,0.00
2019-04-07T02:38:58.236Z,0.00
2019-04-07T02:39:58.726Z,0.00
2019-04-07T02:40:57.959Z,0.00
2019-04-07T02:41:57.857Z,0.00
2019-04-07T02:42:58.869Z,0.00
2019-04-07T02:43:57.875Z,0.00
2019-04-07T02:44:57.906Z,0.00
2019-04-07T02:45:57.978Z,0.00
2019-04-07T02:46:58.825Z,0.00
2019-04-07T02:47:57.967Z,0.00
2019-04-07T02:48:57.838Z,0.00
2019-04-07T02:49:57.830Z,0.00
2019-04-07T02:50:57.900Z,0.00
2019-04-07T02:51:57.829Z,0.00
2019-04-07T02:52:57.897Z,0.00
2019-04-07T02:53:58.419Z,0.00
2019-04-07T02:54:57.903Z,0.00
2019-04-07T02:55:57.849Z,0.00
2019-04-07T02:56:57.882Z,0.00
2019-04-07T02:57:58.246Z,0.00
2019-04-07T02:58:58.156Z,0.00
2019-04-07T02:59:57.964Z,0.00
2019-04-07T03:00:57.842Z,0.00
2019-04-07T03:01:57.869Z,0.00
2019-04-07T03:02:58.145Z,0.00
2019-04-07T03:03:57.917Z,0.00
2019-04-07T03:04:58.595Z,0.00
2019-04-07T03:05:58.267Z,0.00
2019-04-07T03:06:58.674Z,0.00
2019-04-07T03:07:57.925Z,0.00
2019-04-07T03:08:57.929Z,0.00
2019-04-07T03:09:57.869Z,0.00
2019-04-07T03:10:58.694Z,0.00
2019-04-07T03:11:57.967Z,0.00
2019-04-07T03:12:58.743Z,0.00
2019-04-07T03:13:58.603Z,0.00
2019-04-07T03:14:58.456Z,0.00
2019-04-07T03:15:57.958Z,0.00
2019-04-07T03:16:57.947Z,0.00
2019-04-07T03:17:57.955Z,0.00
2019-04-07T03:18:58.061Z,0.00
2019-04-07T03:19:57.897Z,0.00
2019-04-07T03:20:57.997Z,0.00
2019-04-07T03:21:57.914Z,0.00
2019-04-07T03:22:58.776Z,0.00
2019-04-07T03:23:58.575Z,0.00
2019-04-07T03:24:58.270Z,0.00
2019-04-07T03:25:58.209Z,0.00
2019-04-07T03:26:57.900Z,0.00
2019-04-07T03:27:57.924Z,0.00
2019-04-07T03:28:58.094Z,0.00
2019-04-07T03:29:58.939Z,0.00
2019-04-07T03:30:59.156Z,0.00
2019-04-07T03:31:59.663Z,0.00
2019-04-07T03:33:00.490Z,0.00
2019-04-07T03:33:59.503Z,0.00
2019-04-07T03:34:58.284Z,0.00
2019-04-07T03:36:02.081Z,0.00
2019-04-07T03:37:27.067Z,0.00
2019-04-07T03:37:59.099Z,0.00
2019-04-07T03:38:58.990Z,0.00
2019-04-07T03:39:58.776Z,0.00
2019-04-07T03:40:59.010Z,0.00
2019-04-07T03:41:59.039Z,0.00
2019-04-07T03:42:57.890Z,0.00
2019-04-07T03:43:57.954Z,0.00
2019-04-07T03:44:58.693Z,0.00
2019-04-07T03:45:57.985Z,0.00
2019-04-07T03:46:57.877Z,0.00
2019-04-07T03:47:58.843Z,0.00
2019-04-07T03:48:58.083Z,0.00
2019-04-07T03:49:57.833Z,0.00
2019-04-07T03:50:57.825Z,0.00
2019-04-07T03:51:58.193Z,0.00
2019-04-07T03:52:58.446Z,0.00
2019-04-07T03:53:57.906Z,0.00
2019-04-07T03:54:58.774Z,0.00
2019-04-07T03:55:57.914Z,0.00
2019-04-07T03:56:58.400Z,0.00
2019-04-07T03:57:57.907Z,0.00
2019-04-07T03:58:58.007Z,0.00
2019-04-07T03:59:57.940Z,0.00
2019-04-07T04:00:57.900Z,0.00
2019-04-07T04:01:57.957Z,0.00
2019-04-07T04:02:57.976Z,0.00
2019-04-07T04:03:59.172Z,0.00
2019-04-07T04:04:58.110Z,0.00
2019-04-07T04:05:57.852Z,0.00
2019-04-07T04:06:57.981Z,0.00
2019-04-07T04:07:58.078Z,0.00
2019-04-07T04:08:58.679Z,0.00
2019-04-07T04:09:58.301Z,0.00
2019-04-07T04:10:58.128Z,0.00
2019-04-07T04:11:57.956Z,0.00
2019-04-07T04:12:58.655Z,0.00
2019-04-07T04:13:58.286Z,0.00
2019-04-07T04:14:59.812Z,0.00
2019-04-07T04:15:58.867Z,0.00
2019-04-07T04:16:58.020Z,0.00
2019-04-07T04:17:57.993Z,0.00
2019-04-07T04:18:58.688Z,0.00
2019-04-07T04:19:58.662Z,0.00
2019-04-07T04:20:58.047Z,0.00
2019-04-07T04:21:58.887Z,0.00
2019-04-07T04:22:58.329Z,0.00
2019-04-07T04:23:57.925Z,0.00
2019-04-07T04:24:57.985Z,0.00
2019-04-07T04:25:58.955Z,0.00
2019-04-07T04:26:59.144Z,0.00
2019-04-07T04:27:59.109Z,0.00
2019-04-07T04:28:58.341Z,0.00
2019-04-07T04:29:57.964Z,0.00
2019-04-07T04:30:57.995Z,0.00
2019-04-07T04:31:57.980Z,0.00
2019-04-07T04:32:57.990Z,0.00
2019-04-07T04:33:58.099Z,0.00
2019-04-07T04:34:57.928Z,0.00
2019-04-07T04:35:57.955Z,0.00
2019-04-07T04:36:57.998Z,0.00
2019-04-07T04:37:57.931Z,0.00
2019-04-07T04:38:58.069Z,0.00
2019-04-07T04:39:57.930Z,0.00
2019-04-07T04:40:58.167Z,0.00
2019-04-07T04:41:57.923Z,0.00
2019-04-07T04:42:58.165Z,0.00
2019-04-07T04:43:58.143Z,0.00
2019-04-07T04:44:58.859Z,0.00
2019-04-07T04:45:57.926Z,0.00
2019-04-07T04:46:58.363Z,0.00
2019-04-07T04:48:58.736Z,0.00
2019-04-07T04:49:57.912Z,0.00
2019-04-07T04:50:58.076Z,0.00
2019-04-07T04:51:58.647Z,0.00
2019-04-07T04:52:57.972Z,0.00
2019-04-07T04:53:58.386Z,0.00
2019-04-07T04:54:57.877Z,0.00
2019-04-07T04:55:58.905Z,0.00
2019-04-07T04:56:57.950Z,0.00
2019-04-07T04:57:57.949Z,0.00
2019-04-07T04:58:58.483Z,1.00
2019-04-07T04:59:58.050Z,1.00
2019-04-07T05:00:58.883Z,1.00
2019-04-07T05:01:57.985Z,1.00
2019-04-07T05:02:58.177Z,1.00
2019-04-07T05:03:58.410Z,1.00
2019-04-07T05:04:57.979Z,2.00
2019-04-07T05:05:57.860Z,2.00
2019-04-07T05:06:58.098Z,2.00
2019-04-07T05:08:03.395Z,2.00
2019-04-07T05:08:58.119Z,2.00
2019-04-07T05:09:58.789Z,2.00
2019-04-07T05:10:57.935Z,2.00
2019-04-07T05:11:58.711Z,2.00
2019-04-07T05:12:58.184Z,2.00
2019-04-07T05:13:58.178Z,3.00
2019-04-07T05:14:58.117Z,3.00
2019-04-07T05:15:58.000Z,3.00
2019-04-07T05:16:58.605Z,3.00
2019-04-07T05:17:58.192Z,3.00
2019-04-07T05:18:58.506Z,3.00
2019-04-07T05:19:58.024Z,3.00
2019-04-07T05:20:58.242Z,4.00
2019-04-07T05:21:58.236Z,4.00
2019-04-07T05:22:58.627Z,4.00
2019-04-07T05:23:57.942Z,4.00
2019-04-07T05:24:58.175Z,4.00
2019-04-07T05:25:58.282Z,4.00
2019-04-07T05:26:58.523Z,4.00
2019-04-07T05:27:58.598Z,5.00
2019-04-07T05:28:58.281Z,5.00
2019-04-07T05:29:58.008Z,5.00
2019-04-07T05:30:58.030Z,5.00
2019-04-07T05:31:57.935Z,5.00
2019-04-07T05:32:59.017Z,5.00
2019-04-07T05:33:58.597Z,5.00
2019-04-07T05:34:58.014Z,6.00
2019-04-07T05:35:58.309Z,6.00
2019-04-07T05:36:58.700Z,6.00
2019-04-07T05:38:02.625Z,6.00
2019-04-07T05:38:57.957Z,6.00
2019-04-07T05:39:58.025Z,6.00
2019-04-07T05:40:58.653Z,7.00
2019-04-07T05:41:58.067Z,7.00
2019-04-07T05:42:58.693Z,7.00
2019-04-07T05:43:58.037Z,7.00
2019-04-07T05:44:58.533Z,7.00
2019-04-07T05:45:59.175Z,7.00
2019-04-07T05:46:58.210Z,8.00
2019-04-07T05:47:58.023Z,8.00
2019-04-07T05:48:57.949Z,9.00
2019-04-07T05:49:59.606Z,11.00
2019-04-07T05:51:00.476Z,12.00
2019-04-07T05:51:59.538Z,13.00
2019-04-07T05:52:58.744Z,14.00
2019-04-07T05:53:58.108Z,14.00
2019-04-07T05:54:57.960Z,14.00
2019-04-07T05:55:58.043Z,15.00
2019-04-07T05:57:00.370Z,15.00
2019-04-07T05:57:58.687Z,16.00
2019-04-07T05:58:58.141Z,16.00
2019-04-07T05:59:57.993Z,16.00
2019-04-07T06:00:58.688Z,17.00
2019-04-07T06:02:01.312Z,17.00
2019-04-07T06:02:58.257Z,18.00
2019-04-07T06:03:57.987Z,18.00
2019-04-07T06:04:59.489Z,18.00
2019-04-07T06:05:58.100Z,19.00
2019-04-07T06:06:58.158Z,19.00
2019-04-07T06:08:02.628Z,19.00
2019-04-07T06:08:58.617Z,20.00
2019-04-07T06:09:58.771Z,20.00
2019-04-07T06:11:01.563Z,20.00
2019-04-07T06:11:58.701Z,21.00
2019-04-07T06:12:57.965Z,21.00
2019-04-07T06:13:58.042Z,21.00
2019-04-07T06:14:58.496Z,22.00
2019-04-07T06:15:58.714Z,22.00
2019-04-07T06:16:58.189Z,23.00
2019-04-07T06:18:00.564Z,23.00
2019-04-07T06:18:58.867Z,23.00
2019-04-07T06:19:58.058Z,24.00
2019-04-07T06:20:58.528Z,24.00
2019-04-07T06:21:58.046Z,24.00
2019-04-07T06:22:58.454Z,25.00
2019-04-07T06:23:59.891Z,25.00
2019-04-07T06:25:00.766Z,25.00
2019-04-07T06:26:00.022Z,26.00
2019-04-07T06:26:58.673Z,26.00
2019-04-07T06:27:57.980Z,26.00
2019-04-07T06:28:58.821Z,27.00
2019-04-07T06:30:00.071Z,27.00
2019-04-07T06:31:00.209Z,28.00
2019-04-07T06:32:00.000Z,28.00
2019-04-07T06:32:58.098Z,28.00
2019-04-07T06:33:58.055Z,29.00
2019-04-07T06:34:58.429Z,29.00
2019-04-07T06:35:58.163Z,29.00
2019-04-07T06:36:58.214Z,30.00
2019-04-07T06:38:04.000Z,30.00
2019-04-07T06:38:58.221Z,30.00
2019-04-07T06:39:58.077Z,31.00
2019-04-07T06:41:00.859Z,32.00
2019-04-07T06:42:00.372Z,32.00
2019-04-07T06:42:58.033Z,32.00
2019-04-07T06:44:09.001Z,33.00
2019-04-07T06:45:00.347Z,33.00
2019-04-07T06:45:58.462Z,34.00
2019-04-07T06:47:01.303Z,34.00
2019-04-07T06:48:01.151Z,35.00
2019-04-07T06:48:58.014Z,35.00
2019-04-07T06:49:58.536Z,36.00
2019-04-07T06:50:59.749Z,36.00
2019-04-07T06:52:00.798Z,36.00
2019-04-07T06:52:58.835Z,36.00
2019-04-07T06:53:58.081Z,37.00
2019-04-07T06:54:58.019Z,37.00
2019-04-07T06:56:01.001Z,37.00
2019-04-07T06:56:58.099Z,37.00
2019-04-07T06:57:58.295Z,37.00
2019-04-07T06:58:58.176Z,37.00
2019-04-07T06:59:58.015Z,38.00
2019-04-07T07:01:01.355Z,38.00
2019-04-07T07:01:59.432Z,39.00
2019-04-07T07:02:58.918Z,39.00
2019-04-07T07:03:58.537Z,40.00
2019-04-07T07:04:58.289Z,40.00
2019-04-07T07:06:00.208Z,41.00
2019-04-07T07:06:58.018Z,41.00
2019-04-07T07:07:58.039Z,41.00
2019-04-07T07:08:58.375Z,42.00
2019-04-07T07:09:59.928Z,42.00
2019-04-07T07:10:58.457Z,43.00
2019-04-07T07:11:58.818Z,43.00
2019-04-07T07:13:00.966Z,43.00
2019-04-07T07:13:58.810Z,44.00
2019-04-07T07:14:58.299Z,44.00
2019-04-07T07:15:58.565Z,45.00
2019-04-07T07:16:58.735Z,45.00
2019-04-07T07:17:59.250Z,46.00
2019-04-07T07:19:01.028Z,47.00
2019-04-07T07:20:01.736Z,47.00
2019-04-07T07:21:01.704Z,47.00
2019-04-07T07:21:58.038Z,48.00
2019-04-07T07:23:00.380Z,49.00
2019-04-07T07:23:58.013Z,49.00
2019-04-07T07:25:00.282Z,49.00
2019-04-07T07:26:01.015Z,49.00
2019-04-07T07:26:58.104Z,49.00
2019-04-07T07:27:57.945Z,50.00
2019-04-07T07:28:58.435Z,50.00
2019-04-07T07:29:57.946Z,51.00
2019-04-07T07:30:57.953Z,52.00
2019-04-07T07:32:01.918Z,52.00
2019-04-07T07:32:58.008Z,53.00
2019-04-07T07:33:58.249Z,53.00
2019-04-07T07:34:58.708Z,53.00
2019-04-07T07:35:58.278Z,54.00
2019-04-07T07:36:58.902Z,54.00
2019-04-07T07:37:59.527Z,55.00
2019-04-07T07:39:01.687Z,55.00
2019-04-07T07:39:58.052Z,55.00
2019-04-07T07:41:01.002Z,56.00
2019-04-07T07:41:58.426Z,56.00
2019-04-07T07:42:58.978Z,56.00
2019-04-07T07:44:03.199Z,57.00
2019-04-07T07:44:58.307Z,57.00
2019-04-07T07:45:58.968Z,58.00
2019-04-07T07:46:58.212Z,59.00
2019-04-07T07:47:58.087Z,59.00
2019-04-07T07:49:01.086Z,59.00
2019-04-07T07:49:58.651Z,61.00
2019-04-07T07:50:58.106Z,61.00
2019-04-07T07:51:58.191Z,61.00
2019-04-07T07:52:58.253Z,62.00
2019-04-07T07:54:00.558Z,62.00
2019-04-07T07:55:00.767Z,63.00
2019-04-07T07:55:58.098Z,63.00
2019-04-07T07:56:58.107Z,63.00
2019-04-07T07:57:59.288Z,64.00
2019-04-07T07:59:00.032Z,64.00
2019-04-07T07:59:58.546Z,65.00
2019-04-07T08:01:00.150Z,66.00
2019-04-07T08:01:58.721Z,67.00
2019-04-07T08:02:58.298Z,67.00
2019-04-07T08:03:58.631Z,67.00
2019-04-07T08:04:59.280Z,68.00
2019-04-07T08:05:58.962Z,68.00
2019-04-07T08:06:58.050Z,68.00
2019-04-07T08:07:58.066Z,68.00
2019-04-07T08:09:09.844Z,69.00
2019-04-07T08:09:58.157Z,69.00
2019-04-07T08:11:00.654Z,70.00
2019-04-07T08:11:58.802Z,70.00
2019-04-07T08:12:58.549Z,71.00
2019-04-07T08:13:58.066Z,71.00
2019-04-07T08:14:58.641Z,72.00
2019-04-07T08:15:59.407Z,72.00
2019-04-07T08:17:00.226Z,72.00
2019-04-07T08:17:58.540Z,72.00
2019-04-07T08:19:00.214Z,73.00
2019-04-07T08:19:58.819Z,73.00
2019-04-07T08:20:58.896Z,74.00
2019-04-07T08:21:58.451Z,74.00
2019-04-07T08:22:58.107Z,74.00
2019-04-07T08:23:58.970Z,75.00
2019-04-07T08:24:58.815Z,75.00
2019-04-07T08:25:59.068Z,75.00
2019-04-07T08:26:59.093Z,75.00
2019-04-07T08:27:58.211Z,76.00
2019-04-07T08:28:59.003Z,76.00
2019-04-07T08:29:58.322Z,76.00
2019-04-07T08:30:58.696Z,76.00
2019-04-07T08:31:58.738Z,76.00
2019-04-07T08:33:00.272Z,76.00
2019-04-07T08:33:59.973Z,77.00
2019-04-07T08:35:02.677Z,77.00
2019-04-07T08:35:58.901Z,78.00
2019-04-07T08:36:58.498Z,78.00
2019-04-07T08:37:58.517Z,78.00
2019-04-07T08:38:58.489Z,78.00
2019-04-07T08:39:58.085Z,77.00
2019-04-07T08:40:58.646Z,77.00
2019-04-07T08:41:58.265Z,77.00
2019-04-07T08:42:58.320Z,78.00
2019-04-07T08:43:58.087Z,77.00
2019-04-07T08:45:00.309Z,77.00
2019-04-07T08:45:58.153Z,77.00
2019-04-07T08:46:58.985Z,78.00
2019-04-07T08:47:58.164Z,79.00
2019-04-07T08:48:58.104Z,79.00
2019-04-07T08:49:58.174Z,80.00
2019-04-07T08:51:00.451Z,80.00
2019-04-07T08:51:58.994Z,80.00
2019-04-07T08:52:58.962Z,81.00
2019-04-07T08:53:58.541Z,81.00
2019-04-07T08:54:58.171Z,82.00
2019-04-07T08:55:58.841Z,81.00
2019-04-07T08:56:58.517Z,81.00
2019-04-07T08:58:00.971Z,81.00
2019-04-07T08:58:58.114Z,81.00
2019-04-07T08:59:58.882Z,82.00
2019-04-07T09:00:58.559Z,82.00
2019-04-07T09:01:58.153Z,82.00
2019-04-07T09:03:03.709Z,82.00
2019-04-07T09:03:58.560Z,84.00
2019-04-07T09:04:58.173Z,85.00
2019-04-07T09:05:58.548Z,86.00
2019-04-07T09:07:00.675Z,86.00
2019-04-07T09:07:58.118Z,87.00
2019-04-07T09:08:58.198Z,88.00
2019-04-07T09:09:58.729Z,87.00
2019-04-07T09:10:58.238Z,87.00
2019-04-07T09:11:58.184Z,87.00
2019-04-07T09:13:01.742Z,88.00
2019-04-07T09:13:58.798Z,88.00
2019-04-07T09:14:58.365Z,88.00
2019-04-07T09:15:58.931Z,89.00
2019-04-07T09:16:59.123Z,89.00
2019-04-07T09:17:58.933Z,89.00
2019-04-07T09:19:03.761Z,91.00
2019-04-07T09:19:58.305Z,90.00
2019-04-07T09:20:58.106Z,90.00
2019-04-07T09:21:58.180Z,91.00
2019-04-07T09:22:58.302Z,91.00
2019-04-07T09:23:58.179Z,92.00
2019-04-07T09:24:58.879Z,93.00
2019-04-07T09:25:58.390Z,93.00
2019-04-07T09:26:58.819Z,94.00
2019-04-07T09:27:58.361Z,95.00
2019-04-07T09:28:58.715Z,95.00
2019-04-07T09:29:58.919Z,95.00
2019-04-07T09:31:01.111Z,96.00
2019-04-07T09:31:58.685Z,96.00
2019-04-07T09:32:58.798Z,96.00
2019-04-07T09:33:58.208Z,96.00
2019-04-07T09:34:58.122Z,97.00
2019-04-07T09:35:59.218Z,97.00
2019-04-07T09:36:59.000Z,97.00
2019-04-07T09:37:58.765Z,97.00
2019-04-07T09:39:01.819Z,97.00
2019-04-07T09:40:01.158Z,97.00
2019-04-07T09:40:58.443Z,98.00
2019-04-07T09:41:58.376Z,98.00
2019-04-07T09:43:00.956Z,99.00
2019-04-07T09:44:01.165Z,98.00
2019-04-07T09:44:58.521Z,99.00
2019-04-07T09:45:58.359Z,99.00
2019-04-07T09:46:58.625Z,99.00
2019-04-07T09:47:58.738Z,99.00
2019-04-07T09:48:58.752Z,99.00
2019-04-07T09:49:58.435Z,99.00
2019-04-07T09:51:02.394Z,99.00
2019-04-07T09:51:58.146Z,99.00
2019-04-07T09:52:58.213Z,99.00
2019-04-07T09:53:58.758Z,99.00
2019-04-07T09:54:58.647Z,99.00
2019-04-07T09:55:59.127Z,99.00
2019-04-07T09:56:58.804Z,99.00
2019-04-07T09:57:58.169Z,99.00
2019-04-07T09:58:58.154Z,99.00
2019-04-07T09:59:58.224Z,99.00
2019-04-07T10:00:58.464Z,99.00
2019-04-07T10:02:00.280Z,99.00
2019-04-07T10:02:58.143Z,99.00
2019-04-07T10:03:58.217Z,99.00
2019-04-07T10:04:58.149Z,99.00
2019-04-07T10:05:58.204Z,99.00
2019-04-07T10:06:58.222Z,99.00
2019-04-07T10:07:58.898Z,99.00
2019-04-07T10:08:58.831Z,99.00
2019-04-07T10:10:08.541Z,99.00
2019-04-07T10:10:58.332Z,99.00
2019-04-07T10:11:58.376Z,99.00
2019-04-07T10:12:58.074Z,99.00
2019-04-07T10:13:58.193Z,99.00
2019-04-07T10:14:58.337Z,99.00
2019-04-07T10:15:58.180Z,99.00
2019-04-07T10:16:58.173Z,99.00
2019-04-07T10:17:58.718Z,99.00
2019-04-07T10:18:58.215Z,99.00
2019-04-07T10:19:58.818Z,99.00
2019-04-07T10:20:58.749Z,99.00
2019-04-07T10:22:00.500Z,99.00
2019-04-07T10:22:58.224Z,99.00
2019-04-07T10:23:59.232Z,99.00
2019-04-07T10:24:58.341Z,99.00
2019-04-07T10:25:58.438Z,99.00
2019-04-07T10:26:58.817Z,99.00
2019-04-07T10:27:58.301Z,99.00
2019-04-07T10:28:58.251Z,99.00
2019-04-07T10:29:58.180Z,99.00
2019-04-07T10:30:58.599Z,79.00
2019-04-07T10:31:58.139Z,46.00
2019-04-07T10:32:58.450Z,99.00
2019-04-07T10:33:58.361Z,99.00
2019-04-07T10:34:59.169Z,99.00
2019-04-07T10:35:58.302Z,99.00
2019-04-07T10:36:59.950Z,99.00
2019-04-07T10:37:58.245Z,99.00
2019-04-07T10:38:58.195Z,99.00
2019-04-07T10:39:59.494Z,99.00
2019-04-07T10:40:59.357Z,99.00
2019-04-07T10:41:58.901Z,99.00
2019-04-07T10:42:58.450Z,99.00
2019-04-07T10:43:58.984Z,99.00
2019-04-07T10:44:58.389Z,99.00
2019-04-07T10:45:58.719Z,99.00
2019-04-07T10:46:58.137Z,99.00
2019-04-07T10:47:58.168Z,99.00
2019-04-07T10:48:59.058Z,99.00
2019-04-07T10:50:03.975Z,99.00
2019-04-07T10:50:58.996Z,99.00
2019-04-07T10:51:59.268Z,99.00
2019-04-07T10:52:58.253Z,99.00
2019-04-07T10:53:58.420Z,99.00
2019-04-07T10:54:58.420Z,99.00
2019-04-07T10:55:58.258Z,99.00
2019-04-07T10:56:58.192Z,99.00
2019-04-07T10:57:58.497Z,99.00
2019-04-07T10:58:58.334Z,99.00
2019-04-07T10:59:58.121Z,99.00
2019-04-07T11:00:58.667Z,99.00
2019-04-07T11:01:58.209Z,99.00
2019-04-07T11:02:58.176Z,99.00
2019-04-07T11:03:58.240Z,99.00
2019-04-07T11:04:58.153Z,99.00
2019-04-07T11:05:58.285Z,99.00
2019-04-07T11:06:58.643Z,99.00
2019-04-07T11:07:58.750Z,99.00
2019-04-07T11:08:58.953Z,99.00
2019-04-07T11:09:58.914Z,99.00
2019-04-07T11:10:58.192Z,99.00
2019-04-07T11:11:58.797Z,99.00
2019-04-07T11:12:58.249Z,99.00
2019-04-07T11:13:58.767Z,99.00
2019-04-07T11:14:58.968Z,99.00
2019-04-07T11:15:59.124Z,99.00
2019-04-07T11:17:00.345Z,99.00
2019-04-07T11:17:58.231Z,99.00
2019-04-07T11:18:58.575Z,99.00
2019-04-07T11:19:59.036Z,99.00
2019-04-07T11:20:58.191Z,99.00
2019-04-07T11:21:58.189Z,99.00
2019-04-07T11:22:58.265Z,99.00
2019-04-07T11:23:58.934Z,99.00
2019-04-07T11:24:58.985Z,99.00
2019-04-07T11:25:58.267Z,34.00
2019-04-07T11:26:58.218Z,33.00
2019-04-07T11:27:58.299Z,34.00
2019-04-07T11:28:58.276Z,99.00
2019-04-07T11:29:58.439Z,99.00
2019-04-07T11:30:58.522Z,99.00
2019-04-07T11:31:58.296Z,99.00
2019-04-07T11:32:58.889Z,99.00
2019-04-07T11:33:58.839Z,99.00
2019-04-07T11:34:58.488Z,99.00
2019-04-07T11:35:58.515Z,99.00
2019-04-07T11:36:58.216Z,99.00
2019-04-07T11:37:58.435Z,99.00
2019-04-07T11:38:58.551Z,99.00
2019-04-07T11:39:59.010Z,99.00
2019-04-07T11:40:58.208Z,99.00
2019-04-07T11:41:59.027Z,99.00
2019-04-07T11:42:58.888Z,99.00
2019-04-07T11:43:58.663Z,99.00
2019-04-07T11:44:58.564Z,99.00
2019-04-07T11:46:02.221Z,99.00
2019-04-07T11:46:58.282Z,99.00
2019-04-07T11:47:59.080Z,99.00
2019-04-07T11:48:59.002Z,99.00
2019-04-07T11:49:59.196Z,99.00
2019-04-07T11:50:58.759Z,99.00
2019-04-07T11:51:58.223Z,99.00
2019-04-07T11:52:58.303Z,99.00
2019-04-07T11:53:58.834Z,99.00
2019-04-07T11:54:58.297Z,30.00
2019-04-07T11:56:58.967Z,99.00
2019-04-07T11:58:09.868Z,99.00
2019-04-07T11:58:59.041Z,99.00
2019-04-07T11:59:58.307Z,99.00
2019-04-07T12:00:59.198Z,99.00
2019-04-07T12:01:58.605Z,99.00
2019-04-07T12:02:58.233Z,82.00
2019-04-07T12:03:59.810Z,99.00
2019-04-07T12:04:58.944Z,99.00
2019-04-07T12:05:58.252Z,99.00
2019-04-07T12:06:58.304Z,99.00
2019-04-07T12:07:58.798Z,99.00
2019-04-07T12:08:58.929Z,99.00
2019-04-07T12:09:58.485Z,99.00
2019-04-07T12:11:02.178Z,99.00
2019-04-07T12:11:58.351Z,99.00
2019-04-07T12:12:59.115Z,99.00
2019-04-07T12:13:58.705Z,41.00
2019-04-07T12:14:58.876Z,30.00
2019-04-07T12:15:58.270Z,29.00
2019-04-07T12:17:00.310Z,29.00
2019-04-07T12:17:59.116Z,29.00
2019-04-07T12:18:59.076Z,30.00
2019-04-07T12:19:59.098Z,33.00
2019-04-07T12:21:00.906Z,91.00
2019-04-07T12:21:58.255Z,99.00
2019-04-07T12:22:58.329Z,56.00
2019-04-07T12:23:58.370Z,60.00
2019-04-07T12:25:01.710Z,99.00
2019-04-07T12:25:58.995Z,99.00
2019-04-07T12:27:00.729Z,99.00
2019-04-07T12:27:58.251Z,99.00
2019-04-07T12:28:58.326Z,99.00
2019-04-07T12:29:58.254Z,99.00
2019-04-07T12:30:58.871Z,99.00
2019-04-07T12:31:58.334Z,99.00
2019-04-07T12:32:58.621Z,99.00
2019-04-07T12:33:58.537Z,99.00
2019-04-07T12:34:58.327Z,99.00
2019-04-07T12:35:58.614Z,99.00
2019-04-07T12:37:02.425Z,99.00
2019-04-07T12:37:59.536Z,99.00
2019-04-07T12:38:58.549Z,99.00
2019-04-07T12:39:58.268Z,99.00
2019-04-07T12:41:11.442Z,99.00
2019-04-07T12:41:59.452Z,99.00
2019-04-07T12:42:59.156Z,99.00
2019-04-07T12:43:58.334Z,99.00
2019-04-07T12:44:58.340Z,99.00
2019-04-07T12:45:59.310Z,99.00
2019-04-07T12:46:58.369Z,99.00
2019-04-07T12:47:58.381Z,99.00
2019-04-07T12:48:58.695Z,99.00
2019-04-07T12:49:58.420Z,99.00
2019-04-07T12:50:58.468Z,99.00
2019-04-07T12:51:59.033Z,99.00
2019-04-07T12:53:02.177Z,99.00
2019-04-07T12:53:58.565Z,99.00
2019-04-07T12:54:59.289Z,99.00
2019-04-07T12:56:00.820Z,47.00
2019-04-07T12:56:58.258Z,31.00
2019-04-07T12:57:58.333Z,75.00
2019-04-07T12:58:59.012Z,98.00
2019-04-07T12:59:58.334Z,97.00
2019-04-07T13:01:06.221Z,96.00
2019-04-07T13:02:00.813Z,96.00
2019-04-07T13:02:58.553Z,98.00
2019-04-07T13:03:59.033Z,98.00
2019-04-07T13:05:00.535Z,95.00
2019-04-07T13:05:59.073Z,96.00
2019-04-07T13:06:58.818Z,95.00